Time;durP1;ratioP1;P1;durP2;ratioP2;P2;SDS_P1;SDS_P2;PMS_P1;PMS_P2;Temp;Humidity;BMP_temperature;BMP_pressure;BME280_temperature;BME280_humidity;BME280_pressure;Samples;Min_cycle;Max_cycle;Signal;HPM_P1;HPM_P2
2022/07/18 00:01:01;;;;;;;7.20;3.60;;;18.10;99.90;;;;;;4996607;28;20038;-71
2022/07/18 00:03:26;;;;;;;4.53;2.63;;;18.00;99.90;;;;;;5018609;28;20033;-71
2022/07/18 00:05:53;;;;;;;7.00;3.17;;;18.00;99.90;;;;;;5013809;28;20117;-71
2022/07/18 00:08:18;;;;;;;6.60;2.72;;;18.00;99.90;;;;;;5015841;28;20037;-71
2022/07/18 00:10:44;;;;;;;5.22;2.90;;;18.00;99.90;;;;;;5028152;28;20507;-71
2022/07/18 00:13:10;;;;;;;5.50;3.17;;;18.00;99.90;;;;;;5026065;28;20029;-71
2022/07/18 00:15:36;;;;;;;5.03;2.90;;;17.90;99.90;;;;;;5024591;28;20122;-71
2022/07/18 00:18:03;;;;;;;5.20;3.28;;;17.90;99.90;;;;;;5018271;28;20116;-71
2022/07/18 00:20:29;;;;;;;5.55;2.92;;;17.90;99.90;;;;;;5018696;28;20402;-71
2022/07/18 00:22:55;;;;;;;5.60;2.50;;;17.80;99.90;;;;;;5005309;28;20045;-71
2022/07/18 00:25:22;;;;;;;6.90;2.97;;;17.80;99.90;;;;;;5007402;28;20052;-71
2022/07/18 00:27:47;;;;;;;5.53;3.03;;;17.80;99.90;;;;;;5020963;28;20179;-71
2022/07/18 00:30:13;;;;;;;5.07;2.83;;;17.80;99.90;;;;;;5013356;28;20719;-71
2022/07/18 00:32:39;;;;;;;6.35;3.33;;;17.70;99.90;;;;;;5024725;28;20420;-71
2022/07/18 00:35:06;;;;;;;5.75;3.10;;;17.70;99.90;;;;;;5006044;28;20120;-71
2022/07/18 00:37:31;;;;;;;;;;;17.70;99.90;;;;;;5027229;28;20183;-78
2022/07/18 00:39:57;;;;;;;5.97;3.28;;;17.70;99.90;;;;;;5009962;28;20015;-71
2022/07/18 00:42:22;;;;;;;9.55;3.70;;;17.60;99.90;;;;;;5027598;28;20199;-71
2022/07/18 00:44:53;;;;;;;6.63;3.22;;;17.60;99.90;;;;;;5020191;28;20114;-71
2022/07/18 00:47:19;;;;;;;6.25;3.53;;;17.60;99.90;;;;;;5016522;28;20033;-72
2022/07/18 00:49:45;;;;;;;5.68;3.30;;;17.50;99.90;;;;;;5022796;28;20037;-71
2022/07/18 00:52:10;;;;;;;5.82;3.53;;;17.40;99.90;;;;;;5013183;28;20497;-71
2022/07/18 00:54:36;;;;;;;6.68;3.35;;;17.50;99.90;;;;;;5016542;28;20501;-71
2022/07/18 00:57:02;;;;;;;5.72;3.22;;;17.40;99.90;;;;;;5016424;28;20414;-71
2022/07/18 01:01:42;;;;;;;7.18;3.25;;;17.40;99.90;;;;;;5019976;28;20029;-71
2022/07/18 01:02:14;;;;;;;6.33;3.57;;;17.30;99.90;;;;;;5015846;28;20047;-71
2022/07/18 01:04:39;;;;;;;5.40;3.13;;;17.30;99.90;;;;;;5024621;28;20839;-71
2022/07/18 01:07:05;;;;;;;6.88;3.65;;;17.30;99.90;;;;;;5016486;28;20042;-72
2022/07/18 01:09:32;;;;;;;6.45;3.15;;;17.20;99.90;;;;;;5020416;28;20132;-72
2022/07/18 01:12:01;;;;;;;8.85;3.50;;;17.20;99.90;;;;;;5012547;28;20068;-71
2022/07/18 01:14:27;;;;;;;7.50;3.30;;;17.20;99.90;;;;;;5015066;28;20042;-71
2022/07/18 01:16:52;;;;;;;7.65;2.97;;;17.20;99.90;;;;;;5017339;28;20406;-71
2022/07/18 01:19:18;;;;;;;7.53;3.45;;;17.10;99.90;;;;;;5023062;28;20474;-71
2022/07/18 01:21:43;;;;;;;5.40;2.88;;;17.10;99.90;;;;;;5017069;28;20049;-71
2022/07/18 01:24:09;;;;;;;4.82;2.88;;;17.10;99.90;;;;;;5023753;28;20049;-71
2022/07/18 01:26:36;;;;;;;6.50;3.50;;;17.00;99.90;;;;;;5011882;28;20053;-71
2022/07/18 01:29:02;;;;;;;5.50;3.55;;;17.00;99.90;;;;;;4999428;28;20494;-71
2022/07/18 01:31:30;;;;;;;5.10;3.40;;;17.00;99.90;;;;;;5020576;28;20041;-72
2022/07/18 01:33:55;;;;;;;7.20;4.03;;;17.00;99.90;;;;;;5015904;28;20042;-71
2022/07/18 01:36:21;;;;;;;4.90;3.13;;;17.00;99.90;;;;;;5012267;28;20092;-71
2022/07/18 01:38:46;;;;;;;9.43;3.35;;;17.00;99.90;;;;;;5021381;28;20025;-71
2022/07/18 01:41:12;;;;;;;5.88;3.55;;;17.00;99.90;;;;;;5024820;28;20048;-71
2022/07/18 01:43:42;;;;;;;6.60;3.55;;;17.00;99.90;;;;;;5021991;28;20473;-71
2022/07/18 01:46:09;;;;;;;5.82;3.45;;;17.00;99.90;;;;;;4991300;28;20048;-71
2022/07/18 01:48:38;;;;;;;6.70;3.40;;;16.90;99.90;;;;;;5012592;28;20136;-72
2022/07/18 01:51:04;;;;;;;7.80;3.85;;;16.90;99.90;;;;;;5022223;28;20312;-71
2022/07/18 01:53:30;;;;;;;7.07;3.42;;;16.90;99.90;;;;;;5016450;28;20048;-71
2022/07/18 01:55:55;;;;;;;6.20;3.65;;;16.90;99.90;;;;;;5019122;28;20422;-71
2022/07/18 01:58:21;;;;;;;7.18;3.47;;;16.90;99.90;;;;;;5016003;28;20048;-71
2022/07/18 02:00:47;;;;;;;8.68;3.85;;;16.90;99.90;;;;;;5020585;28;20063;-72
2022/07/18 02:03:15;;;;;;;8.68;3.88;;;16.80;99.90;;;;;;5023458;28;20045;-71
2022/07/18 02:05:40;;;;;;;10.98;5.47;;;16.80;99.90;;;;;;5019808;28;20656;-71
2022/07/18 02:08:06;;;;;;;14.70;7.07;;;16.80;99.90;;;;;;5002473;28;20055;-71
2022/07/18 02:10:31;;;;;;;17.40;8.18;;;16.70;99.90;;;;;;5017648;28;20490;-71
2022/07/18 02:12:57;;;;;;;16.88;8.60;;;16.70;99.90;;;;;;5016552;28;20041;-71
2022/07/18 02:15:23;;;;;;;15.52;8.85;;;16.70;99.90;;;;;;5020415;28;20214;-71
2022/07/18 02:17:49;;;;;;;15.43;7.50;;;16.70;99.90;;;;;;5018745;28;20049;-71
2022/07/18 02:20:15;;;;;;;19.02;7.95;;;16.60;99.90;;;;;;5022695;28;20037;-72
2022/07/18 02:22:40;;;;;;;13.80;7.80;;;16.60;99.90;;;;;;5019012;28;20529;-71
2022/07/18 02:25:06;;;;;;;14.27;8.18;;;16.60;99.90;;;;;;5017271;28;20120;-71
2022/07/18 02:27:32;;;;;;;16.65;8.07;;;16.60;99.90;;;;;;5014645;28;20310;-71
2022/07/18 02:29:58;;;;;;;16.88;7.80;;;16.60;99.90;;;;;;5021223;28;20043;-71
2022/07/18 02:32:24;;;;;;;17.58;8.30;;;16.50;99.90;;;;;;5016119;28;20048;-71
2022/07/18 02:34:49;;;;;;;15.45;8.82;;;16.50;99.90;;;;;;5020017;28;20275;-71
2022/07/18 02:37:15;;;;;;;16.30;7.82;;;16.50;99.90;;;;;;5018130;28;20557;-71
2022/07/18 02:39:41;;;;;;;13.98;7.55;;;16.50;99.90;;;;;;5017030;28;20049;-71
2022/07/18 02:42:06;;;;;;;13.18;6.85;;;16.50;99.90;;;;;;5020390;28;20060;-72
2022/07/18 02:44:32;;;;;;;18.38;7.50;;;16.50;99.90;;;;;;5021639;28;20094;-71
2022/07/18 02:46:58;;;;;;;13.73;6.50;;;16.50;99.90;;;;;;5012621;28;20029;-71
2022/07/18 02:49:26;;;;;;;12.67;6.10;;;16.50;99.90;;;;;;5019316;28;20034;-71
2022/07/18 02:52:04;;;;;;;11.68;5.93;;;16.60;99.90;;;;;;5016277;28;20288;-71
2022/07/18 02:54:32;;;;;;;11.55;5.75;;;16.50;99.90;;;;;;5014244;28;20056;-71
2022/07/18 02:56:57;;;;;;;13.68;5.90;;;16.50;99.90;;;;;;5012976;28;20063;-71
2022/07/18 02:59:25;;;;;;;12.32;6.05;;;16.50;99.90;;;;;;5014774;28;20400;-71
2022/07/18 03:01:51;;;;;;;9.93;5.55;;;16.50;99.90;;;;;;5018409;28;20049;-71
2022/07/18 03:04:18;;;;;;;10.13;5.43;;;16.50;99.90;;;;;;5017718;28;20128;-72
2022/07/18 03:06:44;;;;;;;12.00;6.05;;;16.50;99.90;;;;;;5020695;28;20042;-71
2022/07/18 03:09:10;;;;;;;11.02;4.90;;;16.50;99.90;;;;;;4999814;28;20124;-71
2022/07/18 03:11:36;;;;;;;7.95;4.43;;;16.50;99.90;;;;;;5011038;28;20573;-71
2022/07/18 03:14:01;;;;;;;11.63;5.57;;;16.50;99.90;;;;;;5015191;28;20025;-71
2022/07/18 03:16:27;;;;;;;9.55;5.28;;;16.40;99.90;;;;;;5014210;28;20041;-71
2022/07/18 03:18:53;;;;;;;11.13;5.43;;;16.40;99.90;;;;;;5018113;28;20041;-71
2022/07/18 03:21:19;;;;;;;8.73;4.57;;;16.40;99.90;;;;;;5014901;28;20042;-71
2022/07/18 03:23:45;;;;;;;12.07;5.45;;;16.40;99.90;;;;;;5021131;28;20046;-71
2022/07/18 03:26:10;;;;;;;8.95;4.90;;;16.40;99.90;;;;;;5013442;28;20072;-71
2022/07/18 03:28:36;;;;;;;10.65;5.15;;;16.40;99.90;;;;;;5012409;28;20041;-71
2022/07/18 03:31:03;;;;;;;9.20;4.38;;;16.40;99.90;;;;;;5013799;28;20049;-71
2022/07/18 03:33:29;;;;;;;9.98;4.80;;;16.40;99.90;;;;;;5021896;28;20077;-71
2022/07/18 03:35:54;;;;;;;8.07;5.07;;;16.40;99.90;;;;;;5023202;28;20079;-71
2022/07/18 03:38:20;;;;;;;10.13;4.95;;;16.40;99.90;;;;;;5017727;28;20038;-71
2022/07/18 03:40:46;;;;;;;9.00;4.22;;;16.40;99.90;;;;;;5023118;28;20485;-71
2022/07/18 03:43:11;;;;;;;11.18;5.25;;;16.40;99.90;;;;;;5022020;28;20091;-71
2022/07/18 03:45:37;;;;;;;9.77;5.30;;;16.40;99.90;;;;;;5020276;28;20046;-71
2022/07/18 03:48:02;;;;;;;7.18;4.30;;;16.40;99.90;;;;;;5020589;28;20402;-71
2022/07/18 03:50:28;;;;;;;8.02;4.57;;;16.40;99.90;;;;;;5018242;28;20506;-71
2022/07/18 03:52:54;;;;;;;9.47;4.63;;;16.40;99.90;;;;;;5012629;28;20395;-71
2022/07/18 03:55:20;;;;;;;9.60;4.65;;;16.40;99.90;;;;;;5018462;28;20301;-71
2022/07/18 03:57:46;;;;;;;9.13;3.75;;;16.40;99.90;;;;;;5015612;28;20036;-71
2022/07/18 04:00:13;;;;;;;8.43;4.53;;;16.40;99.90;;;;;;5014953;28;20561;-71
2022/07/18 04:02:43;;;;;;;8.77;4.40;;;16.40;99.90;;;;;;5016931;28;20065;-71
2022/07/18 04:05:10;;;;;;;8.50;4.25;;;16.40;99.90;;;;;;5018313;28;20041;-71
2022/07/18 04:07:35;;;;;;;9.30;4.60;;;16.40;99.90;;;;;;5018095;28;20045;-71
2022/07/18 04:10:02;;;;;;;8.35;4.57;;;16.40;99.90;;;;;;5020495;28;20509;-71
2022/07/18 04:12:28;;;;;;;9.20;4.50;;;16.40;99.90;;;;;;5015243;28;20175;-71
2022/07/18 04:14:53;;;;;;;7.50;4.57;;;16.30;99.90;;;;;;5013951;28;20160;-71
2022/07/18 04:17:19;;;;;;;7.93;4.18;;;16.40;99.90;;;;;;5015365;28;20246;-71
2022/07/18 04:19:44;;;;;;;7.50;4.50;;;16.40;99.90;;;;;;5010873;28;20037;-71
2022/07/18 04:22:10;;;;;;;8.15;4.13;;;16.30;99.90;;;;;;5015582;28;20064;-71
2022/07/18 04:24:36;;;;;;;6.95;3.67;;;16.40;99.90;;;;;;5018074;28;20045;-71
2022/07/18 04:27:01;;;;;;;8.73;4.68;;;16.30;99.90;;;;;;5013931;28;20036;-71
2022/07/18 04:29:27;;;;;;;7.97;4.10;;;16.40;99.90;;;;;;5009595;28;20038;-71
2022/07/18 04:31:55;;;;;;;7.72;4.22;;;16.40;99.90;;;;;;5015945;28;20037;-71
2022/07/18 04:34:20;;;;;;;8.27;3.75;;;16.30;99.90;;;;;;5019266;28;20478;-71
2022/07/18 04:36:46;;;;;;;8.80;4.30;;;16.40;99.90;;;;;;5014151;28;20254;-71
2022/07/18 04:39:12;;;;;;;10.20;5.22;;;16.40;99.90;;;;;;5021898;28;20729;-71
2022/07/18 04:41:37;;;;;;;6.43;3.67;;;16.40;99.90;;;;;;5022570;28;20026;-71
2022/07/18 04:44:03;;;;;;;6.22;3.45;;;16.40;99.90;;;;;;5019814;28;20541;-71
2022/07/18 04:46:29;;;;;;;7.32;4.07;;;16.40;99.90;;;;;;5013961;28;20124;-71
2022/07/18 04:48:54;;;;;;;10.13;3.90;;;16.40;99.90;;;;;;5020840;28;20099;-71
2022/07/18 04:51:20;;;;;;;10.50;4.10;;;16.40;99.90;;;;;;5017804;28;20048;-71
2022/07/18 04:53:45;;;;;;;7.77;4.27;;;16.40;99.90;;;;;;5006652;28;20297;-71
2022/07/18 04:56:11;;;;;;;7.15;3.10;;;16.50;99.90;;;;;;5011801;28;20332;-71
2022/07/18 04:58:36;;;;;;;8.25;3.05;;;16.50;99.90;;;;;;5020075;28;20437;-71
2022/07/18 05:01:02;;;;;;;8.27;3.35;;;16.50;99.90;;;;;;5019879;28;20045;-71
2022/07/18 05:03:28;;;;;;;7.85;3.45;;;16.50;99.90;;;;;;5014957;28;20037;-71
2022/07/18 05:05:54;;;;;;;9.05;3.40;;;16.60;99.90;;;;;;5007647;28;20091;-71
2022/07/18 05:08:19;;;;;;;6.57;3.90;;;16.60;99.90;;;;;;5014273;28;20556;-71
2022/07/18 05:10:45;;;;;;;8.15;4.00;;;16.60;99.90;;;;;;5017078;23;20043;-69
2022/07/18 05:13:11;;;;;;;6.20;3.35;;;16.60;99.90;;;;;;4962813;28;20042;-69
2022/07/18 05:15:36;;;;;;;9.88;3.47;;;16.70;99.90;;;;;;4964607;28;20081;-69
2022/07/18 05:18:02;;;;;;;7.03;3.70;;;16.70;99.90;;;;;;4944104;28;20154;-69
2022/07/18 05:20:28;;;;;;;7.50;3.15;;;16.70;99.90;;;;;;4959546;28;20066;-69
2022/07/18 05:22:54;;;;;;;10.80;3.38;;;16.80;99.90;;;;;;4953881;28;20059;-69
2022/07/18 05:25:24;;;;;;;6.72;3.63;;;16.80;99.90;;;;;;4944605;28;20121;-69
2022/07/18 05:27:50;;;;;;;5.93;3.17;;;16.70;99.90;;;;;;4944485;28;20043;-69
2022/07/18 05:30:15;;;;;;;;;;;16.80;99.90;;;;;;4953388;28;20034;-69
2022/07/18 05:32:42;;;;;;;5.97;3.20;;;16.80;99.90;;;;;;4947165;28;20291;-68
2022/07/18 05:35:10;;;;;;;8.70;3.45;;;16.80;99.90;;;;;;4948471;28;20098;-69
2022/07/18 05:37:37;;;;;;;7.43;3.40;;;16.80;99.90;;;;;;4953025;28;20031;-69
2022/07/18 05:40:08;;;;;;;6.40;3.10;;;16.90;99.90;;;;;;4950640;28;20496;-68
2022/07/18 05:42:34;;;;;;;7.03;3.47;;;16.90;99.90;;;;;;4938355;28;20043;-68
2022/07/18 05:44:59;;;;;;;6.07;3.35;;;16.90;99.90;;;;;;4942909;28;20305;-69
2022/07/18 05:47:25;;;;;;;5.25;3.00;;;16.90;99.90;;;;;;4952688;28;20039;-69
2022/07/18 05:49:54;;;;;;;6.18;2.80;;;16.90;99.90;;;;;;4953846;28;20051;-69
2022/07/18 05:52:20;;;;;;;5.18;2.70;;;17.00;99.90;;;;;;4944779;28;20106;-69
2022/07/18 05:54:45;;;;;;;7.20;3.13;;;17.10;99.90;;;;;;4937630;28;20050;-69
2022/07/18 05:57:11;;;;;;;6.97;3.30;;;17.10;99.90;;;;;;4938515;28;20047;-69
2022/07/18 05:59:37;;;;;;;6.72;3.60;;;17.10;99.90;;;;;;4941195;28;20046;-69
2022/07/18 06:02:02;;;;;;;6.30;3.00;;;17.20;99.90;;;;;;4945736;28;20468;-69
2022/07/18 06:04:28;;;;;;;5.00;2.58;;;17.30;99.90;;;;;;4935716;28;20106;-68
2022/07/18 06:06:53;;;;;;;15.23;2.88;;;17.30;99.90;;;;;;4945876;28;20640;-68
2022/07/18 06:09:19;;;;;;;7.50;2.67;;;17.30;99.90;;;;;;4932179;28;20035;-68
2022/07/18 06:11:45;;;;;;;5.50;2.95;;;17.40;99.90;;;;;;4942837;28;20031;-69
2022/07/18 06:14:10;;;;;;;6.30;2.58;;;17.30;99.90;;;;;;4945345;28;20039;-68
2022/07/18 06:16:36;;;;;;;4.03;2.47;;;17.50;99.90;;;;;;4943890;28;20039;-68
2022/07/18 06:19:03;;;;;;;8.88;2.75;;;17.60;99.90;;;;;;4952164;28;20592;-68
2022/07/18 06:21:28;;;;;;;4.22;2.25;;;17.60;99.90;;;;;;4945851;28;20156;-68
2022/07/18 06:23:54;;;;;;;7.35;2.65;;;17.70;99.90;;;;;;4939232;28;20054;-68
2022/07/18 06:26:20;;;;;;;5.28;2.70;;;17.70;99.90;;;;;;4945276;28;20049;-68
2022/07/18 06:28:46;;;;;;;5.75;2.55;;;17.80;99.90;;;;;;4941089;28;20067;-69
2022/07/18 06:31:14;;;;;;;5.72;3.25;;;17.80;99.90;;;;;;4943370;28;20097;-69
2022/07/18 06:33:40;;;;;;;5.22;2.47;;;17.90;99.90;;;;;;4947247;28;20477;-69
2022/07/18 06:36:06;;;;;;;8.00;3.00;;;17.90;99.90;;;;;;4946903;28;20043;-69
2022/07/18 06:38:32;;;;;;;10.68;2.83;;;18.00;99.90;;;;;;4945234;28;20038;-68
2022/07/18 06:40:57;;;;;;;5.05;2.17;;;18.00;99.90;;;;;;4941163;28;20043;-69
2022/07/18 06:43:23;;;;;;;7.03;2.58;;;18.10;99.90;;;;;;4944434;28;20039;-72
2022/07/18 06:45:51;;;;;;;5.60;2.60;;;18.10;99.90;;;;;;4941547;28;20415;-69
2022/07/18 06:48:17;;;;;;;4.15;2.13;;;18.20;99.90;;;;;;4938204;28;20043;-71
2022/07/18 06:50:43;;;;;;;4.85;2.17;;;18.20;99.90;;;;;;4958629;28;20412;-72
2022/07/18 06:53:08;;;;;;;3.92;2.00;;;18.40;99.90;;;;;;4948362;28;20430;-72
2022/07/18 06:55:34;;;;;;;4.25;1.90;;;18.50;99.90;;;;;;4943959;28;20070;-69
2022/07/18 06:57:59;;;;;;;3.80;2.00;;;18.50;99.90;;;;;;4947671;28;20415;-68
2022/07/18 07:00:26;;;;;;;7.40;1.95;;;18.70;99.90;;;;;;4944763;28;20314;-68
2022/07/18 07:02:52;;;;;;;5.30;1.70;;;18.80;99.90;;;;;;4948547;28;20133;-68
2022/07/18 07:05:19;;;;;;;3.72;1.40;;;18.90;99.90;;;;;;4947231;28;20047;-68
2022/07/18 07:07:45;;;;;;;4.32;1.83;;;19.10;99.90;;;;;;4950130;28;20315;-68
2022/07/18 07:10:11;;;;;;;6.25;2.03;;;19.10;99.90;;;;;;4942351;28;20571;-68
2022/07/18 07:12:41;;;;;;;4.97;2.42;;;19.20;99.90;;;;;;4932780;28;20043;-68
2022/07/18 07:15:08;;;;;;;5.82;1.88;;;19.30;99.90;;;;;;4938419;28;20423;-68
2022/07/18 07:17:33;;;;;;;4.50;1.70;;;19.40;99.90;;;;;;4934608;28;20329;-68
2022/07/18 07:19:59;;;;;;;3.85;1.25;;;19.60;99.90;;;;;;4945375;28;20543;-68
2022/07/18 07:22:25;;;;;;;3.63;1.95;;;19.70;99.90;;;;;;4945284;28;20098;-68
2022/07/18 07:24:51;;;;;;;3.97;1.40;;;19.80;99.90;;;;;;4943690;28;20058;-68
2022/07/18 07:27:16;;;;;;;3.45;1.38;;;19.90;99.90;;;;;;4926209;28;20082;-68
2022/07/18 07:29:42;;;;;;;2.58;1.20;;;20.00;99.90;;;;;;4939376;28;20054;-69
2022/07/18 07:32:07;;;;;;;3.67;1.23;;;20.10;99.90;;;;;;4952430;28;20043;-69
2022/07/18 07:34:33;;;;;;;2.40;1.20;;;20.20;99.90;;;;;;4954682;28;20081;-69
2022/07/18 07:36:59;;;;;;;5.38;1.35;;;20.30;99.90;;;;;;4941429;28;20050;-68
2022/07/18 07:39:25;;;;;;;4.97;1.30;;;20.30;99.90;;;;;;4941399;28;20045;-68
2022/07/18 07:41:51;;;;;;;2.88;1.13;;;20.40;99.90;;;;;;4945587;28;20051;-68
2022/07/18 07:44:16;;;;;;;2.72;1.30;;;20.40;99.90;;;;;;4946411;28;20528;-69
2022/07/18 07:46:42;;;;;;;3.10;1.27;;;20.40;99.90;;;;;;4948096;28;20047;-68
2022/07/18 07:49:07;;;;;;;3.97;1.13;;;20.50;99.90;;;;;;4965195;28;20058;-68
2022/07/18 07:51:33;;;;;;;3.05;1.42;;;20.60;99.90;;;;;;4950844;28;20512;-68
2022/07/18 07:53:59;;;;;;;3.80;1.17;;;20.70;99.90;;;;;;4934290;28;20420;-68
2022/07/18 07:56:24;;;;;;;3.33;1.10;;;20.80;99.90;;;;;;4941488;28;20050;-68
2022/07/18 07:58:50;;;;;;;4.22;1.27;;;20.80;99.90;;;;;;4948019;28;20498;-68
2022/07/18 08:01:17;;;;;;;4.45;1.15;;;20.90;99.90;;;;;;4930181;28;20126;-68
2022/07/18 08:03:44;;;;;;;4.10;1.42;;;21.00;99.90;;;;;;4935630;28;20055;-68
2022/07/18 08:06:10;;;;;;;3.70;1.10;;;21.10;99.90;;;;;;4942007;28;20066;-68
2022/07/18 08:08:36;;;;;;;;;;;21.20;99.90;;;;;;4943405;28;20463;-69
2022/07/18 08:11:01;;;;;;;3.22;1.05;;;21.20;99.90;;;;;;4939336;28;19918;-68
2022/07/18 08:13:27;;;;;;;2.65;0.90;;;21.30;99.90;;;;;;4948170;28;20067;-69
2022/07/18 08:15:53;;;;;;;2.08;1.13;;;21.30;99.90;;;;;;4956143;28;20074;-69
2022/07/18 08:18:18;;;;;;;3.20;1.30;;;21.30;99.90;;;;;;4936899;28;20074;-69
2022/07/18 08:20:44;;;;;;;3.30;1.20;;;21.40;99.90;;;;;;4944804;28;20578;-69
2022/07/18 08:23:11;;;;;;;6.07;1.38;;;21.50;99.90;;;;;;4945478;28;20035;-69
2022/07/18 08:25:39;;;;;;;2.65;1.02;;;21.60;99.90;;;;;;4938555;28;20043;-69
2022/07/18 08:28:06;;;;;;;1.95;1.10;;;21.70;99.90;;;;;;4939643;28;20385;-69
2022/07/18 08:30:32;;;;;;;4.85;1.15;;;21.80;99.90;;;;;;4960492;28;20161;-68
2022/07/18 08:32:58;;;;;;;;;;;21.90;99.90;;;;;;4941468;28;20047;-69
2022/07/18 08:35:24;;;;;;;2.35;1.00;;;22.00;99.90;;;;;;4940442;28;20429;-69
2022/07/18 08:37:50;;;;;;;;;;;22.10;99.90;;;;;;4938709;28;20041;-68
2022/07/18 08:40:16;;;;;;;3.92;1.27;;;22.30;98.80;;;;;;4944410;28;19926;-69
2022/07/18 08:42:42;;;;;;;3.33;1.27;;;22.40;99.80;;;;;;4938555;28;20043;-69
2022/07/18 08:45:08;;;;;;;;;;;22.50;99.20;;;;;;4945186;28;20043;-69
2022/07/18 08:47:35;;;;;;;6.78;1.23;;;22.50;99.10;;;;;;4935975;28;19918;-69
2022/07/18 08:50:04;;;;;;;3.83;1.20;;;22.60;99.30;;;;;;4945973;28;20074;-69
2022/07/18 08:52:30;;;;;;;2.38;1.08;;;22.60;98.30;;;;;;4950321;28;20182;-68
2022/07/18 08:54:56;;;;;;;3.20;1.08;;;22.70;98.20;;;;;;4948008;28;20463;-69
2022/07/18 08:57:23;;;;;;;3.03;1.17;;;22.80;98.00;;;;;;4944590;28;20039;-69
2022/07/18 08:59:48;;;;;;;4.60;1.50;;;22.80;96.50;;;;;;4950843;28;20109;-69
2022/07/18 09:02:14;;;;;;;;;;;22.90;97.40;;;;;;4942441;28;20455;-68
2022/07/18 09:04:42;;;;;;;2.63;1.33;;;23.00;97.30;;;;;;4942343;28;19922;-68
2022/07/18 09:07:10;;;;;;;3.38;1.17;;;23.10;97.80;;;;;;4954848;28;20133;-69
2022/07/18 09:09:36;;;;;;;3.33;1.38;;;23.30;97.90;;;;;;4947571;28;20054;-69
2022/07/18 09:12:06;;;;;;;5.07;1.55;;;23.40;97.30;;;;;;4953904;28;20035;-69
2022/07/18 09:14:39;;;;;;;3.45;1.10;;;23.50;96.50;;;;;;4943984;28;20485;-69
2022/07/18 09:17:08;;;;;;;3.03;1.02;;;23.60;96.40;;;;;;4946141;28;20043;-69
2022/07/18 09:19:34;;;;;;;2.38;1.13;;;23.60;96.60;;;;;;4950651;28;20400;-69
2022/07/18 09:22:14;;;;;;;4.15;1.17;;;23.70;96.30;;;;;;4953349;28;20051;-69
2022/07/18 09:24:56;;;;;;;4.10;1.27;;;23.80;91.00;;;;;;4948726;28;20411;-69
2022/07/18 09:27:25;;;;;;;2.22;0.90;;;24.00;92.40;;;;;;4947931;28;20053;-69
2022/07/18 09:30:06;;;;;;;2.63;1.00;;;24.10;91.00;;;;;;4944590;28;20043;-68
2022/07/18 09:32:32;;;;;;;3.58;1.33;;;24.30;89.20;;;;;;4951147;28;20070;-68
2022/07/18 09:35:03;;;;;;;;;;;24.30;90.10;;;;;;4939604;28;20468;-68
2022/07/18 09:37:30;;;;;;;3.60;1.05;;;24.40;85.30;;;;;;4953025;28;19961;-69
2022/07/18 09:40:18;;;;;;;2.00;1.02;;;24.50;88.70;;;;;;4949912;28;20039;-68
2022/07/18 09:42:48;;;;;;;3.35;1.50;;;24.60;87.90;;;;;;4939547;28;20027;-69
2022/07/18 09:45:13;;;;;;;2.70;1.13;;;24.60;87.50;;;;;;4941603;28;20396;-69
2022/07/18 09:48:10;;;;;;;3.45;1.65;;;24.80;86.40;;;;;;4940526;28;20047;-68
2022/07/18 09:50:59;;;;;;;4.22;1.20;;;24.90;76.60;;;;;;4937954;28;20058;-68
2022/07/18 09:53:26;;;;;;;3.72;1.35;;;25.00;78.40;;;;;;4941361;28;20047;-69
2022/07/18 09:55:57;;;;;;;2.50;1.02;;;25.10;79.90;;;;;;4939405;28;20054;-68
2022/07/18 09:58:24;;;;;;;5.00;1.20;;;25.10;78.00;;;;;;4938945;28;20036;-68
2022/07/18 10:00:51;;;;;;;5.00;1.70;;;25.10;77.10;;;;;;4943596;28;20061;-69
2022/07/18 10:03:19;;;;;;;3.78;1.20;;;25.20;75.80;;;;;;4941855;28;20031;-68
2022/07/18 10:05:46;;;;;;;3.85;1.05;;;25.20;74.70;;;;;;4941138;28;20338;-68
2022/07/18 10:08:17;;;;;;;7.68;1.83;;;25.30;74.90;;;;;;4946101;28;20446;-68
2022/07/18 10:10:44;;;;;;;3.90;1.23;;;25.40;75.90;;;;;;4947733;28;20118;-69
2022/07/18 10:13:11;;;;;;;7.22;1.45;;;25.50;76.70;;;;;;4956387;28;20043;-68
2022/07/18 10:15:39;;;;;;;3.03;1.05;;;25.60;77.20;;;;;;4947467;28;20051;-68
2022/07/18 10:18:07;;;;;;;2.58;1.15;;;25.70;71.90;;;;;;4947825;28;20508;-68
2022/07/18 10:20:39;;;;;;;6.13;1.50;;;25.70;72.80;;;;;;4942941;28;20444;-69
2022/07/18 10:23:22;;;;;;;5.50;1.60;;;25.80;70.90;;;;;;4940033;28;20051;-69
2022/07/18 10:26:19;;;;;;;2.25;1.08;;;25.90;66.80;;;;;;4943081;28;20135;-69
2022/07/18 10:28:56;;;;;;;1.80;1.10;;;26.00;69.40;;;;;;4967444;28;20134;-68
2022/07/18 10:31:31;;;;;;;4.00;1.63;;;26.00;71.60;;;;;;4947147;28;20129;-68
2022/07/18 10:34:09;;;;;;;5.20;1.30;;;26.20;70.30;;;;;;4948798;28;20484;-69
2022/07/18 10:36:36;;;;;;;3.83;1.52;;;26.30;71.00;;;;;;4939089;28;20043;-69
2022/07/18 10:39:14;;;;;;;3.50;0.93;;;26.40;70.40;;;;;;4942828;28;20067;-69
2022/07/18 10:41:42;;;;;;;2.72;1.02;;;26.40;69.10;;;;;;4955512;28;20111;-69
2022/07/18 10:44:36;;;;;;;6.03;1.58;;;26.40;68.70;;;;;;4952184;28;20048;-68
2022/07/18 10:47:20;;;;;;;2.50;1.17;;;26.40;64.60;;;;;;4932915;28;20042;-68
2022/07/18 10:49:52;;;;;;;2.42;1.20;;;26.40;67.10;;;;;;4949983;28;20039;-68
2022/07/18 10:52:30;;;;;;;3.58;1.63;;;26.50;68.00;;;;;;4950815;28;20051;-68
2022/07/18 10:55:01;;;;;;;3.70;1.42;;;26.50;62.00;;;;;;4945172;28;20047;-69
2022/07/18 10:57:48;;;;;;;4.32;1.90;;;26.60;66.00;;;;;;4936427;28;20047;-68
2022/07/18 11:00:28;;;;;;;2.20;1.38;;;26.60;65.40;;;;;;4925691;28;20051;-69
2022/07/18 11:03:09;;;;;;;5.47;1.40;;;26.70;63.00;;;;;;4933231;28;20472;-68
2022/07/18 11:05:44;;;;;;;2.55;1.30;;;26.80;65.50;;;;;;4945176;28;20348;-69
2022/07/18 11:08:10;;;;;;;6.87;1.57;;;27.00;67.20;;;;;;4942845;28;20051;-69
2022/07/18 11:10:42;;;;;;;5.93;1.70;;;27.10;66.10;;;;;;4942610;28;20298;-69
2022/07/18 11:13:20;;;;;;;3.00;1.70;;;27.20;60.80;;;;;;4974760;23;20042;-69
2022/07/18 11:16:18;;;;;;;3.08;1.63;;;27.20;59.40;;;;;;4973166;28;20526;-69
2022/07/18 11:18:43;;;;;;;3.67;1.55;;;27.30;61.20;;;;;;4973638;28;20253;-69
2022/07/18 11:21:30;;;;;;;5.30;1.60;;;27.30;61.80;;;;;;4968889;28;20030;-69
2022/07/18 11:24:11;;;;;;;2.97;1.33;;;27.30;62.20;;;;;;4964719;28;20395;-69
2022/07/18 11:26:47;;;;;;;3.88;1.67;;;27.20;62.20;;;;;;4951589;28;20059;-69
2022/07/18 11:29:17;;;;;;;2.90;1.23;;;27.10;62.40;;;;;;4962167;28;20046;-69
2022/07/18 11:31:54;;;;;;;3.63;1.50;;;27.10;62.70;;;;;;4964597;28;20047;-69
2022/07/18 11:34:21;;;;;;;3.03;1.52;;;27.00;61.50;;;;;;4964756;28;20042;-69
2022/07/18 11:36:48;;;;;;;3.38;1.50;;;26.90;61.60;;;;;;4960702;28;20042;-70
2022/07/18 11:39:15;;;;;;;4.47;1.55;;;26.80;61.70;;;;;;4964973;28;20042;-69
2022/07/18 11:41:41;;;;;;;2.85;1.38;;;26.70;61.10;;;;;;4958628;28;20069;-69
2022/07/18 11:44:26;;;;;;;3.70;1.45;;;26.80;61.30;;;;;;4949486;28;20222;-69
2022/07/18 11:47:01;;;;;;;3.25;1.27;;;26.70;61.60;;;;;;4956955;28;20076;-69
2022/07/18 11:49:27;;;;;;;4.10;1.58;;;26.70;61.90;;;;;;4959891;28;20074;-69
2022/07/18 11:51:53;;;;;;;3.40;1.40;;;26.80;62.00;;;;;;4963714;28;20686;-69
2022/07/18 11:54:23;;;;;;;2.83;1.40;;;26.80;62.00;;;;;;4960686;28;20179;-69
2022/07/18 11:56:53;;;;;;;2.35;1.27;;;26.80;61.80;;;;;;4951200;28;20126;-69
2022/07/18 11:59:18;;;;;;;4.32;1.50;;;26.70;61.60;;;;;;4949697;28;20437;-69
2022/07/18 12:01:45;;;;;;;3.35;1.55;;;26.60;61.60;;;;;;4957965;28;20098;-70
2022/07/18 12:04:19;;;;;;;3.13;1.55;;;26.60;61.50;;;;;;4955722;28;20055;-72
2022/07/18 12:06:45;;;;;;;3.22;1.48;;;26.60;62.20;;;;;;4968033;28;20376;-72
2022/07/18 12:09:12;;;;;;;3.13;1.40;;;26.60;62.40;;;;;;4967015;28;20337;-72
2022/07/18 12:11:38;;;;;;;2.63;1.45;;;26.70;62.70;;;;;;4944407;28;20396;-72
2022/07/18 12:14:07;;;;;;;5.25;1.80;;;26.80;62.40;;;;;;4943117;28;20043;-72
2022/07/18 12:16:48;;;;;;;4.85;1.67;;;26.90;62.80;;;;;;4960481;28;20384;-72
2022/07/18 12:19:27;;;;;;;4.03;1.73;;;27.00;63.90;;;;;;4963318;28;20045;-72
2022/07/18 12:21:53;;;;;;;5.70;1.52;;;27.10;64.30;;;;;;4964912;28;20066;-72
2022/07/18 12:24:25;;;;;;;3.92;1.60;;;27.20;62.60;;;;;;4961094;28;20054;-72
2022/07/18 12:27:19;;;;;;;4.68;1.83;;;27.30;61.60;;;;;;4962320;28;20121;-72
2022/07/18 12:30:10;;;;;;;3.53;2.05;;;27.30;59.90;;;;;;4945883;28;20051;-71
2022/07/18 12:32:45;;;;;;;4.43;1.60;;;27.30;56.50;;;;;;4948331;28;20050;-71
2022/07/18 12:35:14;;;;;;;4.68;1.58;;;27.20;60.70;;;;;;4967849;28;20051;-72
2022/07/18 12:37:40;;;;;;;3.78;1.65;;;27.20;62.20;;;;;;4965209;28;20448;-72
2022/07/18 12:40:09;;;;;;;2.35;1.20;;;27.20;62.10;;;;;;4968485;28;20046;-72
2022/07/18 12:42:40;;;;;;;3.55;1.50;;;27.20;62.30;;;;;;4966560;28;20471;-72
2022/07/18 12:45:07;;;;;;;3.10;1.60;;;27.30;60.40;;;;;;4964996;28;20491;-72
2022/07/18 12:47:33;;;;;;;3.40;1.60;;;27.40;61.00;;;;;;4963984;28;20046;-71
2022/07/18 12:49:59;;;;;;;4.65;1.50;;;27.50;59.80;;;;;;4970891;28;20595;-72
2022/07/18 12:52:25;;;;;;;3.00;1.40;;;27.60;60.20;;;;;;4960836;28;20046;-71